Time;durP1;ratioP1;P1;durP2;ratioP2;P2;SDS_P1;SDS_P2;PMS_P1;PMS_P2;Temp;Humidity;BMP_temperature;BMP_pressure;BME280_temperature;BME280_humidity;BME280_pressure;Samples;Min_cycle;Max_cycle;Signal;HPM_P1;HPM_P2
2022/03/23 00:01:41;;;;;;;12.10;11.00;;;6.00;77.40;;;;;;5053115;28;20638;-79
2022/03/23 00:04:08;;;;;;;13.77;12.67;;;5.50;78.90;;;;;;5051597;28;20633;-80
2022/03/23 00:06:35;;;;;;;12.53;11.43;;;5.30;80.30;;;;;;5052491;28;20996;-79
2022/03/23 00:09:02;;;;;;;12.80;11.90;;;5.70;82.30;;;;;;5047530;28;20661;-80
2022/03/23 00:11:30;;;;;;;11.57;10.67;;;5.40;82.30;;;;;;5051374;28;21239;-80
2022/03/23 00:13:57;;;;;;;13.10;11.80;;;5.20;81.70;;;;;;5052509;28;20622;-79
2022/03/23 00:16:24;;;;;;;12.97;11.67;;;5.20;82.10;;;;;;5048192;28;21206;-80
2022/03/23 00:18:51;;;;;;;12.97;11.80;;;5.50;82.90;;;;;;5051926;28;20973;-80
2022/03/23 00:21:18;;;;;;;12.50;11.30;;;5.50;82.40;;;;;;5053924;28;20658;-80
2022/03/23 00:23:44;;;;;;;11.70;10.67;;;5.20;82.60;;;;;;5052858;28;20620;-80
2022/03/23 00:26:13;;;;;;;12.40;11.40;;;5.60;83.40;;;;;;5049427;28;20630;-79
2022/03/23 00:28:41;;;;;;;13.87;12.43;;;5.40;83.00;;;;;;5044466;28;20668;-80
2022/03/23 00:31:08;;;;;;;14.20;13.00;;;5.00;82.30;;;;;;5048498;28;21014;-79
2022/03/23 00:33:35;;;;;;;13.03;12.00;;;5.70;80.50;;;;;;5047894;28;20721;-78
2022/03/23 00:36:03;;;;;;;14.77;13.40;;;5.40;79.30;;;;;;5050540;28;20660;-79
2022/03/23 00:38:30;;;;;;;15.27;13.97;;;5.50;79.80;;;;;;5045111;28;20660;-81
2022/03/23 00:40:57;;;;;;;14.27;12.50;;;5.60;80.70;;;;;;5048085;28;20685;-81
2022/03/23 00:43:24;;;;;;;15.30;13.90;;;5.40;82.00;;;;;;5048323;28;21208;-80
2022/03/23 00:45:52;;;;;;;15.07;13.60;;;5.50;82.50;;;;;;5050868;28;21162;-80
2022/03/23 00:48:19;;;;;;;14.60;13.40;;;5.40;83.80;;;;;;5050551;28;20639;-80
2022/03/23 00:50:46;;;;;;;14.87;13.43;;;5.30;84.60;;;;;;5052219;28;20694;-80
2022/03/23 00:53:13;;;;;;;15.10;13.57;;;4.90;86.00;;;;;;5048629;28;21147;-80
2022/03/23 00:55:41;;;;;;;14.67;12.60;;;5.40;85.50;;;;;;5049660;28;20629;-80
2022/03/23 00:58:08;;;;;;;14.77;12.90;;;5.30;84.00;;;;;;5047326;28;20644;-79
2022/03/23 01:00:35;;;;;;;14.23;12.83;;;5.30;84.00;;;;;;5049762;28;20661;-79
2022/03/23 01:03:04;;;;;;;14.10;12.80;;;5.10;87.40;;;;;;5047581;28;21002;-79
2022/03/23 01:05:31;;;;;;;13.30;12.10;;;4.90;88.60;;;;;;5048655;28;21260;-79
2022/03/23 01:07:58;;;;;;;14.50;13.30;;;4.90;89.50;;;;;;5051384;28;21392;-79
2022/03/23 01:10:25;;;;;;;13.57;12.37;;;4.70;88.70;;;;;;5047156;28;20676;-79
2022/03/23 01:12:53;;;;;;;13.57;12.37;;;5.00;87.80;;;;;;5047087;28;20633;-79
2022/03/23 01:15:21;;;;;;;13.83;12.73;;;5.10;89.90;;;;;;5048236;28;21202;-79
2022/03/23 01:17:49;;;;;;;12.90;11.70;;;4.60;90.40;;;;;;5046819;28;20616;-79
2022/03/23 01:20:21;;;;;;;13.90;12.80;;;4.40;90.30;;;;;;5048111;28;20970;-79
2022/03/23 01:22:48;;;;;;;13.20;12.00;;;4.80;88.70;;;;;;5049353;28;20648;-79
2022/03/23 01:25:15;;;;;;;12.90;11.70;;;4.80;88.90;;;;;;5048880;28;20631;-79
2022/03/23 01:27:43;;;;;;;13.37;12.07;;;4.80;88.90;;;;;;5048183;28;20628;-79
2022/03/23 01:30:12;;;;;;;13.20;12.10;;;4.60;88.20;;;;;;5049250;28;20680;-79
2022/03/23 01:32:40;;;;;;;13.10;12.03;;;4.90;89.80;;;;;;5046152;28;20664;-79
2022/03/23 01:35:08;;;;;;;13.37;12.07;;;4.60;90.70;;;;;;5037225;28;20636;-80
2022/03/23 01:37:36;;;;;;;13.07;12.00;;;4.80;91.20;;;;;;5049393;28;20990;-80
2022/03/23 01:40:04;;;;;;;13.87;12.67;;;4.10;91.40;;;;;;5045290;28;20654;-81
2022/03/23 01:42:31;;;;;;;13.33;12.10;;;4.40;91.70;;;;;;5044746;28;20637;-80
2022/03/23 01:44:58;;;;;;;13.77;12.57;;;4.50;92.20;;;;;;5046782;28;20982;-80
2022/03/23 01:47:24;;;;;;;14.40;13.13;;;4.10;92.90;;;;;;5049239;28;20634;-80
2022/03/23 01:49:56;;;;;;;14.40;13.20;;;4.70;93.90;;;;;;5046047;28;20685;-80
2022/03/23 01:52:27;;;;;;;14.43;12.90;;;4.40;93.90;;;;;;5046354;28;20628;-80
2022/03/23 01:54:56;;;;;;;14.53;13.17;;;4.50;94.30;;;;;;5048828;28;20648;-80
2022/03/23 01:57:23;;;;;;;15.33;14.03;;;4.50;94.60;;;;;;5043686;28;20988;-80
2022/03/23 01:59:50;;;;;;;14.37;12.93;;;4.40;94.90;;;;;;5046365;28;20657;-80
2022/03/23 02:02:17;;;;;;;14.93;13.50;;;4.40;96.00;;;;;;5044925;28;21147;-80
2022/03/23 02:04:44;;;;;;;15.97;14.50;;;4.30;96.20;;;;;;5045605;28;20640;-80
2022/03/23 02:07:11;;;;;;;16.03;14.43;;;4.40;95.50;;;;;;5047465;28;20636;-78
2022/03/23 02:09:38;;;;;;;15.53;14.10;;;4.30;95.60;;;;;;5046330;28;20708;-79
2022/03/23 02:12:08;;;;;;;14.43;13.07;;;4.30;96.30;;;;;;5045335;28;20670;-79
2022/03/23 02:14:35;;;;;;;14.60;13.20;;;4.30;96.40;;;;;;5044399;28;21180;-78
2022/03/23 02:17:03;;;;;;;15.33;13.90;;;4.20;96.80;;;;;;5044736;28;20628;-78
2022/03/23 02:19:30;;;;;;;14.70;13.57;;;4.40;97.20;;;;;;5044557;28;20697;-80
2022/03/23 02:21:58;;;;;;;14.53;13.20;;;4.10;97.40;;;;;;5048002;28;21029;-78
2022/03/23 02:24:29;;;;;;;15.17;13.97;;;4.20;98.10;;;;;;5045264;28;20634;-79
2022/03/23 02:26:57;;;;;;;16.00;14.60;;;4.00;98.70;;;;;;5045952;28;21016;-80
2022/03/23 02:29:29;;;;;;;15.83;14.23;;;4.20;98.60;;;;;;5045539;28;21018;-79
2022/03/23 02:31:56;;;;;;;19.90;16.80;;;4.00;99.00;;;;;;5047457;28;20670;-80
2022/03/23 02:34:23;;;;;;;14.30;13.03;;;3.90;99.50;;;;;;5046043;28;20688;-80
2022/03/23 02:36:50;;;;;;;14.50;12.80;;;4.00;99.90;;;;;;5047828;28;20639;-81
2022/03/23 02:39:18;;;;;;;16.17;14.77;;;3.40;99.90;;;;;;5045742;28;21165;-80
2022/03/23 02:41:45;;;;;;;16.10;14.60;;;3.90;99.90;;;;;;5049269;28;20630;-79
2022/03/23 02:44:14;;;;;;;15.80;14.37;;;3.40;99.90;;;;;;5045528;28;20623;-79
2022/03/23 02:46:41;;;;;;;17.57;15.97;;;3.40;99.90;;;;;;5046958;28;20721;-79
2022/03/23 02:49:09;;;;;;;19.37;17.27;;;3.40;99.90;;;;;;5046768;28;20626;-79
2022/03/23 02:51:36;;;;;;;18.37;16.87;;;3.30;99.90;;;;;;5045795;28;21288;-79
2022/03/23 03:02:33;;;;;;;19.20;17.27;;;3.70;99.90;;;;;;5047671;28;20616;-80
2022/03/23 03:05:00;;;;;;;18.50;17.00;;;3.60;99.90;;;;;;5045007;28;20622;-80
2022/03/23 03:07:26;;;;;;;20.30;18.17;;;3.70;99.90;;;;;;5049475;28;20630;-80
2022/03/23 03:09:53;;;;;;;18.70;16.80;;;3.60;99.90;;;;;;5046882;28;20690;-80
2022/03/23 03:12:22;;;;;;;20.83;18.50;;;3.10;99.90;;;;;;5045317;28;20631;-80
2022/03/23 03:14:49;;;;;;;19.30;17.33;;;3.70;99.90;;;;;;5046202;28;20756;-80
2022/03/23 03:17:17;;;;;;;20.27;18.33;;;3.00;99.90;;;;;;5048238;28;20712;-80
2022/03/23 03:19:43;;;;;;;20.00;18.30;;;3.50;99.90;;;;;;5048608;28;20733;-80
2022/03/23 03:22:10;;;;;;;19.40;17.57;;;3.00;99.90;;;;;;5048516;28;21024;-80
2022/03/23 03:24:37;;;;;;;20.40;18.40;;;3.60;99.90;;;;;;5046991;28;20969;-80
2022/03/23 03:27:04;;;;;;;16.80;15.30;;;3.60;99.90;;;;;;5046441;28;21201;-80
2022/03/23 03:29:32;;;;;;;18.17;16.40;;;3.30;99.90;;;;;;5045343;28;20673;-80
2022/03/23 03:31:59;;;;;;;18.10;16.50;;;3.60;99.90;;;;;;5044774;28;21173;-80
2022/03/23 03:34:26;;;;;;;17.17;15.77;;;3.30;99.90;;;;;;5047934;28;20657;-80
2022/03/23 03:36:52;;;;;;;18.40;16.60;;;3.30;99.90;;;;;;5049179;28;20653;-79
2022/03/23 03:39:19;;;;;;;18.53;17.00;;;3.20;99.90;;;;;;5048967;28;20626;-79
2022/03/23 03:41:46;;;;;;;17.33;15.83;;;2.80;99.90;;;;;;5048460;28;20642;-80
2022/03/23 03:44:12;;;;;;;17.30;15.80;;;3.10;99.90;;;;;;5048856;28;20621;-80
2022/03/23 03:46:40;;;;;;;17.07;15.60;;;2.70;99.90;;;;;;5046866;28;20634;-80
2022/03/23 03:49:08;;;;;;;17.33;15.73;;;3.00;99.90;;;;;;5048764;28;21074;-80
2022/03/23 03:51:34;;;;;;;16.77;15.30;;;3.30;99.90;;;;;;5044987;28;20675;-80
2022/03/23 03:54:01;;;;;;;17.60;16.00;;;3.30;99.90;;;;;;5048820;28;20872;-80
2022/03/23 03:56:28;;;;;;;17.57;15.83;;;2.70;99.90;;;;;;5049614;28;20661;-80
2022/03/23 03:58:55;;;;;;;15.23;13.90;;;2.70;99.90;;;;;;5047104;28;20623;-80
2022/03/23 04:01:22;;;;;;;16.73;15.30;;;3.30;99.90;;;;;;5047228;28;20643;-80
2022/03/23 04:03:50;;;;;;;15.90;14.60;;;3.00;99.90;;;;;;5043640;28;21128;-80
2022/03/23 04:06:17;;;;;;;16.97;15.40;;;3.00;99.90;;;;;;5040895;28;21182;-81
2022/03/23 04:08:43;;;;;;;15.93;14.33;;;2.90;99.90;;;;;;5049743;28;20634;-81
2022/03/23 04:11:10;;;;;;;16.57;15.17;;;3.00;99.90;;;;;;5045111;28;20685;-78
2022/03/23 04:13:37;;;;;;;16.30;14.90;;;3.00;99.90;;;;;;5047678;28;20688;-80
2022/03/23 04:16:05;;;;;;;17.53;15.67;;;3.10;99.90;;;;;;5050045;28;20863;-80
2022/03/23 04:18:32;;;;;;;16.63;15.20;;;3.00;99.90;;;;;;5048820;28;20689;-80
2022/03/23 04:21:00;;;;;;;17.80;16.27;;;2.80;99.90;;;;;;5051811;28;20642;-80
2022/03/23 04:23:27;;;;;;;18.17;16.67;;;2.60;99.90;;;;;;5046144;28;21183;-80
2022/03/23 04:25:54;;;;;;;18.20;16.70;;;2.50;99.90;;;;;;5047953;28;20617;-80
2022/03/23 04:28:21;;;;;;;17.63;16.13;;;3.00;99.90;;;;;;5047653;28;21207;-80
2022/03/23 04:30:48;;;;;;;17.93;16.43;;;3.00;99.90;;;;;;5049248;28;20705;-80
2022/03/23 04:33:15;;;;;;;19.73;17.97;;;3.00;99.90;;;;;;5048438;28;20722;-79
2022/03/23 04:35:42;;;;;;;19.20;17.57;;;2.90;99.90;;;;;;5052237;28;20998;-79
2022/03/23 04:38:11;;;;;;;20.50;18.47;;;2.80;99.90;;;;;;5051185;28;20618;-81
2022/03/23 04:40:38;;;;;;;19.93;17.93;;;2.60;99.90;;;;;;5055262;28;21303;-81
2022/03/23 04:43:05;;;;;;;20.50;17.90;;;2.90;99.90;;;;;;5051025;28;20653;-81
2022/03/23 04:45:32;;;;;;;22.80;20.60;;;2.70;99.90;;;;;;5050350;28;20617;-81
2022/03/23 04:47:58;;;;;;;20.70;18.90;;;2.80;99.90;;;;;;5048760;28;20664;-81
2022/03/23 04:50:25;;;;;;;21.20;19.30;;;3.00;99.90;;;;;;5049969;28;20673;-80
2022/03/23 04:52:52;;;;;;;21.17;19.37;;;2.60;99.90;;;;;;5050025;28;20626;-81
2022/03/23 04:55:21;;;;;;;22.40;20.50;;;2.60;99.90;;;;;;5053897;28;20648;-80
2022/03/23 04:57:48;;;;;;;20.30;18.60;;;2.70;99.90;;;;;;5049841;28;21174;-80
2022/03/23 05:00:17;;;;;;;20.83;18.43;;;2.80;99.90;;;;;;5043033;28;20982;-80
2022/03/23 05:02:46;;;;;;;21.47;19.57;;;2.70;99.90;;;;;;5051426;28;20629;-80
2022/03/23 05:05:13;;;;;;;20.70;19.00;;;2.70;99.90;;;;;;5043038;28;20660;-80
2022/03/23 05:07:40;;;;;;;20.10;18.47;;;2.60;99.90;;;;;;5045153;28;20649;-79
2022/03/23 05:10:09;;;;;;;19.40;17.90;;;2.60;99.90;;;;;;5049617;28;20678;-80
2022/03/23 05:12:37;;;;;;;22.17;20.17;;;2.60;99.90;;;;;;5049253;28;20993;-80
2022/03/23 05:15:05;;;;;;;22.27;20.17;;;2.50;99.90;;;;;;5051008;28;20633;-80
2022/03/23 05:17:32;;;;;;;18.97;17.47;;;2.80;99.90;;;;;;5052681;28;20639;-81
2022/03/23 05:19:59;;;;;;;21.77;19.97;;;2.60;99.90;;;;;;5052645;28;20660;-80
2022/03/23 05:22:26;;;;;;;20.97;19.37;;;2.60;99.90;;;;;;5051808;28;20614;-80
2022/03/23 05:24:53;;;;;;;20.93;19.23;;;2.70;99.90;;;;;;5046034;28;20634;-80
2022/03/23 05:27:20;;;;;;;20.80;19.00;;;2.60;99.90;;;;;;5046407;28;21152;-80
2022/03/23 05:29:48;;;;;;;22.03;20.00;;;2.50;99.90;;;;;;5047058;28;20664;-80
2022/03/23 05:32:17;;;;;;;20.00;18.20;;;2.60;99.90;;;;;;5050078;28;20718;-80
2022/03/23 05:34:44;;;;;;;21.23;19.53;;;2.60;99.90;;;;;;5050217;28;21192;-80
2022/03/23 05:37:11;;;;;;;20.53;18.93;;;2.70;99.90;;;;;;5049394;28;20984;-80
2022/03/23 05:39:38;;;;;;;22.27;19.97;;;2.70;99.90;;;;;;5048236;28;20665;-80
2022/03/23 05:42:05;;;;;;;21.57;19.87;;;2.50;99.90;;;;;;5043336;28;20629;-80
2022/03/23 05:44:32;;;;;;;21.67;19.97;;;2.60;99.90;;;;;;5049057;28;20982;-80
2022/03/23 05:47:00;;;;;;;22.03;20.20;;;2.30;99.90;;;;;;5051927;28;21164;-80
2022/03/23 05:49:27;;;;;;;21.43;19.53;;;2.60;99.90;;;;;;5048480;28;21161;-80
2022/03/23 05:51:54;;;;;;;20.90;19.20;;;2.60;99.90;;;;;;5049687;28;20654;-80
2022/03/23 05:54:21;;;;;;;21.17;19.27;;;2.70;99.90;;;;;;5051228;28;21200;-80
2022/03/23 05:56:48;;;;;;;21.67;19.67;;;2.70;99.90;;;;;;5050464;28;20966;-80
2022/03/23 05:59:14;;;;;;;21.87;19.83;;;2.80;99.90;;;;;;5049273;28;20637;-80
2022/03/23 06:01:41;;;;;;;20.47;18.77;;;2.30;99.90;;;;;;5053163;28;21039;-80
2022/03/23 06:04:09;;;;;;;21.50;19.70;;;2.80;99.90;;;;;;5049947;28;20640;-80
2022/03/23 06:06:36;;;;;;;21.00;19.10;;;2.80;99.90;;;;;;5049900;28;21001;-80
2022/03/23 06:09:03;;;;;;;21.63;19.33;;;2.80;99.90;;;;;;5048383;28;20614;-80
2022/03/23 06:11:30;;;;;;;21.40;19.37;;;2.80;99.90;;;;;;5047864;28;21250;-80
2022/03/23 06:13:57;;;;;;;20.27;18.47;;;2.80;99.90;;;;;;5047008;28;21188;-80
2022/03/23 06:16:24;;;;;;;20.57;18.67;;;2.60;99.90;;;;;;5049499;28;20626;-80
2022/03/23 06:18:51;;;;;;;19.07;17.40;;;3.00;99.90;;;;;;5048037;28;20628;-80
2022/03/23 06:21:19;;;;;;;21.07;19.23;;;3.10;99.90;;;;;;5049698;28;20657;-80
2022/03/23 06:23:46;;;;;;;20.43;18.53;;;3.30;99.90;;;;;;5050550;28;21170;-80
2022/03/23 06:26:12;;;;;;;20.90;19.23;;;3.20;99.90;;;;;;5050667;28;21153;-80
2022/03/23 06:28:39;;;;;;;21.73;19.77;;;3.40;99.90;;;;;;5050707;28;20642;-81
2022/03/23 06:31:06;;;;;;;19.90;18.30;;;3.30;99.90;;;;;;5041271;28;21027;-80
2022/03/23 06:33:33;;;;;;;18.33;16.63;;;3.50;99.90;;;;;;5041026;28;20742;-81
2022/03/23 06:35:59;;;;;;;20.17;18.43;;;3.40;99.90;;;;;;5052011;28;20626;-80
2022/03/23 06:38:27;;;;;;;20.27;18.17;;;3.50;99.90;;;;;;5046714;28;21206;-80
2022/03/23 06:40:54;;;;;;;22.00;19.67;;;3.50;99.90;;;;;;5048993;28;21344;-81
2022/03/23 06:43:21;;;;;;;20.10;18.30;;;3.90;99.90;;;;;;5049020;28;20641;-79
2022/03/23 06:45:48;;;;;;;22.30;20.30;;;3.90;99.90;;;;;;5048102;28;20651;-80
2022/03/23 06:48:14;;;;;;;20.30;18.50;;;3.90;99.90;;;;;;5047752;28;20625;-81
2022/03/23 06:50:41;;;;;;;20.17;18.23;;;4.00;99.90;;;;;;5049043;28;21034;-79
2022/03/23 06:53:08;;;;;;;20.60;18.60;;;4.20;99.90;;;;;;5047972;28;20633;-79
2022/03/23 06:55:37;;;;;;;18.90;17.30;;;4.20;99.90;;;;;;5048451;28;20731;-80
2022/03/23 06:58:04;;;;;;;21.53;19.53;;;4.40;99.90;;;;;;5043802;28;20745;-80
2022/03/23 07:00:31;;;;;;;20.07;17.90;;;4.40;99.90;;;;;;5051229;28;20662;-80
2022/03/23 07:02:58;;;;;;;22.77;19.07;;;4.50;99.90;;;;;;5049716;28;20611;-80
2022/03/23 07:05:25;;;;;;;20.83;18.83;;;4.50;99.90;;;;;;5051760;28;20614;-80
2022/03/23 07:10:38;;;;;;;19.80;17.80;;;4.70;99.90;;;;;;5047746;28;21344;-80
2022/03/23 07:13:05;;;;;;;23.80;17.67;;;4.80;99.90;;;;;;5047271;28;21010;-82
2022/03/23 07:15:33;;;;;;;21.17;19.20;;;4.90;99.90;;;;;;5048619;28;20767;-80
2022/03/23 07:17:59;;;;;;;19.80;17.80;;;5.20;99.90;;;;;;5046159;28;20616;-80
2022/03/23 07:20:27;;;;;;;19.90;17.90;;;5.50;99.90;;;;;;5046638;28;20651;-80
2022/03/23 07:22:53;;;;;;;21.10;19.20;;;5.40;99.40;;;;;;5049558;28;20623;-80
2022/03/23 07:25:20;;;;;;;19.00;17.10;;;5.10;98.80;;;;;;5047902;28;20627;-80
2022/03/23 07:27:48;;;;;;;20.00;18.00;;;5.70;98.30;;;;;;5046952;28;20629;-80
2022/03/23 07:30:15;;;;;;;19.43;17.50;;;5.70;97.70;;;;;;5046115;28;20649;-79
2022/03/23 07:32:42;;;;;;;20.87;18.57;;;5.50;97.00;;;;;;5044897;28;20685;-79
2022/03/23 07:35:09;;;;;;;20.07;18.17;;;5.70;96.80;;;;;;5047439;28;20630;-82
2022/03/23 07:37:36;;;;;;;20.20;18.40;;;6.00;96.50;;;;;;5049236;28;20632;-81
2022/03/23 07:40:04;;;;;;;20.03;18.13;;;6.20;96.50;;;;;;5043705;28;20664;-80
2022/03/23 07:42:31;;;;;;;21.83;18.17;;;6.60;96.20;;;;;;5042951;28;20628;-81
2022/03/23 07:44:59;;;;;;;19.50;17.70;;;6.30;95.70;;;;;;5045807;28;20624;-81
2022/03/23 07:47:26;;;;;;;19.20;17.47;;;6.60;95.60;;;;;;5049740;28;20629;-81
2022/03/23 07:49:52;;;;;;;19.20;17.40;;;6.70;95.40;;;;;;5045014;28;20983;-79
2022/03/23 07:52:19;;;;;;;21.00;18.77;;;6.80;95.20;;;;;;5048012;28;20663;-79
2022/03/23 07:54:46;;;;;;;22.50;18.53;;;7.00;95.00;;;;;;5044639;28;20645;-81
2022/03/23 07:57:13;;;;;;;20.30;18.30;;;6.70;94.70;;;;;;5045311;28;20625;-81
2022/03/23 07:59:40;;;;;;;20.43;18.53;;;7.20;94.60;;;;;;5043790;28;20943;-81
2022/03/23 08:02:08;;;;;;;20.60;18.53;;;7.60;94.20;;;;;;5045115;28;21343;-80
2022/03/23 08:04:35;;;;;;;23.37;21.17;;;7.30;93.90;;;;;;5048013;28;21214;-81
2022/03/23 08:07:02;;;;;;;21.37;19.37;;;7.20;93.80;;;;;;5045764;28;20622;-80
2022/03/23 08:09:29;;;;;;;22.53;20.60;;;7.80;93.80;;;;;;5046352;28;21170;-80
2022/03/23 08:11:57;;;;;;;21.37;19.20;;;7.70;93.40;;;;;;5043227;28;21216;-80
2022/03/23 08:14:23;;;;;;;21.53;19.53;;;7.90;93.60;;;;;;5048412;28;21063;-78
2022/03/23 08:16:52;;;;;;;21.20;19.13;;;8.20;93.20;;;;;;5049267;28;20614;-81
2022/03/23 08:19:20;;;;;;;21.90;19.90;;;7.60;92.50;;;;;;5048734;28;20650;-81
2022/03/23 08:21:47;;;;;;;21.37;18.77;;;8.20;92.50;;;;;;5053608;28;20618;-81
2022/03/23 08:24:14;;;;;;;20.50;18.60;;;8.10;92.40;;;;;;5050252;28;20619;-81
2022/03/23 08:26:41;;;;;;;21.20;19.13;;;8.10;92.60;;;;;;5048219;28;20637;-81
2022/03/23 08:29:08;;;;;;;20.70;18.70;;;8.10;92.00;;;;;;5048211;28;20723;-81
2022/03/23 08:31:35;;;;;;;21.07;18.90;;;8.40;92.00;;;;;;5045955;28;21016;-81
2022/03/23 08:34:02;;;;;;;21.33;19.37;;;9.00;92.00;;;;;;5048358;28;20627;-81
2022/03/23 08:36:31;;;;;;;19.37;17.60;;;9.10;91.90;;;;;;5048069;28;20630;-81
2022/03/23 08:38:57;;;;;;;22.07;19.87;;;8.70;91.30;;;;;;5046571;28;20638;-80
2022/03/23 08:41:24;;;;;;;20.57;18.07;;;9.20;91.50;;;;;;5046983;28;20638;-80
2022/03/23 08:43:51;;;;;;;21.20;18.83;;;9.00;91.10;;;;;;5049140;28;20622;-81
2022/03/23 08:46:18;;;;;;;24.17;19.00;;;9.40;91.20;;;;;;5049516;28;20621;-80
2022/03/23 08:48:45;;;;;;;20.07;17.97;;;9.50;90.90;;;;;;5053454;28;22502;-81
2022/03/23 08:51:12;;;;;;;21.47;19.47;;;9.50;90.60;;;;;;5048069;28;20652;-81
2022/03/23 08:53:42;;;;;;;25.60;19.30;;;9.90;90.60;;;;;;5045378;28;20641;-81
2022/03/23 08:56:10;;;;;;;22.40;20.00;;;10.00;89.70;;;;;;5042220;28;21176;-80
2022/03/23 08:58:37;;;;;;;21.20;18.00;;;9.80;90.30;;;;;;5047021;28;20638;-81
2022/03/23 09:01:04;;;;;;;22.07;19.77;;;10.30;89.90;;;;;;5048838;28;20653;-81
2022/03/23 09:03:31;;;;;;;21.83;19.63;;;10.10;88.10;;;;;;5049810;28;20630;-80
2022/03/23 09:05:58;;;;;;;24.80;22.17;;;10.60;88.50;;;;;;5048545;28;20668;-81
2022/03/23 09:08:25;;;;;;;23.73;21.30;;;10.60;87.60;;;;;;5049413;28;20716;-80
2022/03/23 09:10:53;;;;;;;23.23;20.80;;;10.50;86.80;;;;;;5046811;28;20641;-81
2022/03/23 09:13:20;;;;;;;23.33;20.13;;;10.80;87.00;;;;;;5051295;28;20661;-80
2022/03/23 09:15:48;;;;;;;23.20;20.73;;;11.00;87.10;;;;;;5051122;28;20640;-80
2022/03/23 09:18:14;;;;;;;21.43;19.27;;;11.10;86.70;;;;;;5048760;28;20721;-81
2022/03/23 09:20:41;;;;;;;23.23;19.80;;;11.20;86.30;;;;;;5049153;28;20658;-81
2022/03/23 09:23:09;;;;;;;24.70;20.80;;;11.30;85.60;;;;;;5050275;28;20618;-81
2022/03/23 09:25:36;;;;;;;24.43;22.00;;;11.40;85.30;;;;;;5050487;28;20633;-80
2022/03/23 09:28:05;;;;;;;23.70;21.07;;;11.60;84.10;;;;;;5044631;28;20736;-80
2022/03/23 09:30:32;;;;;;;22.87;20.67;;;11.70;84.00;;;;;;5047692;28;20657;-80
2022/03/23 09:33:00;;;;;;;23.13;20.83;;;11.80;83.30;;;;;;5044448;28;20662;-80
2022/03/23 09:35:27;;;;;;;24.90;21.30;;;11.90;82.50;;;;;;5049653;28;20965;-80
2022/03/23 09:37:56;;;;;;;23.50;21.10;;;12.10;82.20;;;;;;5046889;28;20610;-80
2022/03/23 09:40:24;;;;;;;21.23;19.13;;;12.20;81.00;;;;;;5051196;28;21228;-80
2022/03/23 09:42:51;;;;;;;24.60;21.53;;;12.40;80.60;;;;;;5043984;28;21094;-80
2022/03/23 09:45:32;;;;;;;22.83;20.50;;;12.40;80.90;;;;;;5048794;28;20641;-80
2022/03/23 09:48:00;;;;;;;24.67;22.37;;;12.50;79.60;;;;;;5050391;28;21039;-80
2022/03/23 09:50:29;;;;;;;24.07;21.67;;;12.60;78.90;;;;;;5046716;28;20645;-80
2022/03/23 09:52:56;;;;;;;21.97;19.67;;;12.70;77.30;;;;;;5047560;28;21034;-80
2022/03/23 09:55:23;;;;;;;25.73;23.30;;;12.80;77.30;;;;;;5047835;28;20634;-80
2022/03/23 09:57:53;;;;;;;23.10;20.60;;;13.00;77.20;;;;;;5046739;28;20609;-80
2022/03/23 10:00:22;;;;;;;29.17;21.00;;;13.20;76.70;;;;;;5048286;28;20661;-80
2022/03/23 10:03:25;;;;;;;21.47;19.27;;;13.40;76.90;;;;;;5049987;28;20624;-80
2022/03/23 10:06:34;;;;;;;23.10;20.80;;;13.60;74.90;;;;;;5043082;28;21456;-80
2022/03/23 10:09:30;;;;;;;23.07;20.73;;;13.90;73.80;;;;;;5040604;28;20633;-80
2022/03/23 10:12:39;;;;;;;22.67;20.40;;;14.20;72.60;;;;;;5033192;28;20666;-80
2022/03/23 10:15:45;;;;;;;22.17;20.07;;;14.50;72.20;;;;;;5003177;28;20626;-80
2022/03/23 10:18:49;;;;;;;21.47;19.47;;;14.80;70.60;;;;;;5041851;28;20634;-80
2022/03/23 10:21:16;;;;;;;22.27;19.97;;;15.00;69.50;;;;;;5021245;28;20681;-80
2022/03/23 10:23:52;;;;;;;24.10;19.13;;;15.30;69.90;;;;;;5040306;28;21490;-80
2022/03/23 10:26:19;;;;;;;20.23;17.47;;;15.40;68.00;;;;;;5044040;28;21150;-80
2022/03/23 10:28:46;;;;;;;27.87;24.80;;;15.70;67.70;;;;;;5044235;28;20637;-80
2022/03/23 10:31:18;;;;;;;22.50;20.10;;;16.00;67.10;;;;;;5044152;28;21223;-80
2022/03/23 10:33:57;;;;;;;24.43;21.77;;;16.30;66.40;;;;;;5042782;28;20662;-80
2022/03/23 10:36:27;;;;;;;24.87;22.47;;;16.60;65.50;;;;;;5044832;28;20707;-80
2022/03/23 10:39:00;;;;;;;28.50;25.60;;;17.00;64.30;;;;;;5043916;28;20617;-80
2022/03/23 10:41:29;;;;;;;21.87;19.57;;;17.20;63.60;;;;;;5043829;28;20668;-80
2022/03/23 10:43:56;;;;;;;24.63;22.30;;;17.40;62.40;;;;;;5043399;28;20629;-80
2022/03/23 10:46:23;;;;;;;20.83;18.73;;;17.70;61.60;;;;;;5041729;28;20924;-80
2022/03/23 10:48:58;;;;;;;23.33;20.97;;;17.90;61.30;;;;;;5041963;28;20621;-80
2022/03/23 10:51:30;;;;;;;20.27;18.27;;;18.20;60.30;;;;;;5044412;28;20668;-80
2022/03/23 10:53:57;;;;;;;21.40;19.47;;;18.60;59.50;;;;;;5045227;28;21115;-80
2022/03/23 10:56:31;;;;;;;20.93;18.83;;;18.60;58.20;;;;;;5042926;28;20621;-80
2022/03/23 10:59:21;;;;;;;20.53;18.33;;;19.00;57.50;;;;;;5041567;28;20913;-79
2022/03/23 11:01:59;;;;;;;21.70;19.07;;;19.30;56.60;;;;;;5044005;28;21186;-79
2022/03/23 11:04:29;;;;;;;20.53;18.43;;;19.50;56.20;;;;;;5044200;28;20620;-79
2022/03/23 11:06:58;;;;;;;20.53;18.37;;;19.60;54.40;;;;;;5045028;28;20624;-79
2022/03/23 11:18:06;;;;;;;19.80;17.90;;;20.80;52.10;;;;;;5040845;28;20639;-79
2022/03/23 11:20:53;;;;;;;21.17;19.47;;;21.30;51.30;;;;;;5045320;28;20657;-80
2022/03/23 11:23:23;;;;;;;18.27;16.40;;;21.40;49.00;;;;;;5042229;28;21104;-79
2022/03/23 11:25:50;;;;;;;20.23;18.43;;;21.50;47.60;;;;;;5032045;28;20663;-79
2022/03/23 11:28:18;;;;;;;19.10;17.30;;;21.70;47.10;;;;;;5045559;28;20634;-79
2022/03/23 11:30:45;;;;;;;14.17;13.00;;;21.70;46.40;;;;;;5044249;28;21242;-79
2022/03/23 11:33:16;;;;;;;10.23;9.43;;;22.10;43.80;;;;;;5043370;28;20661;-79
2022/03/23 11:35:47;;;;;;;10.13;9.13;;;22.50;38.10;;;;;;5046096;28;20634;-79
2022/03/23 11:38:16;;;;;;;10.60;9.70;;;22.80;37.90;;;;;;5044584;28;21118;-79
2022/03/23 11:40:45;;;;;;;11.40;10.40;;;23.20;35.80;;;;;;5043746;28;20661;-79
2022/03/23 11:43:12;;;;;;;9.97;9.17;;;23.60;36.60;;;;;;5048786;28;20609;-79
2022/03/23 11:45:40;;;;;;;11.30;10.37;;;24.00;34.40;;;;;;5047491;28;20618;-79
2022/03/23 11:48:15;;;;;;;11.70;10.70;;;24.00;34.00;;;;;;5047731;28;20665;-78
2022/03/23 11:50:56;;;;;;;20.70;15.00;;;24.40;34.70;;;;;;5050222;28;20652;-80
2022/03/23 11:53:34;;;;;;;17.27;15.67;;;24.80;36.10;;;;;;5046573;28;20658;-81
2022/03/23 11:56:02;;;;;;;16.77;15.17;;;24.60;34.80;;;;;;5044434;28;20796;-81
2022/03/23 11:58:37;;;;;;;15.20;13.70;;;24.70;35.20;;;;;;5046601;28;20647;-80
2022/03/23 12:01:11;;;;;;;11.30;10.40;;;24.80;34.60;;;;;;5044971;28;20645;-81
2022/03/23 12:03:48;;;;;;;13.13;10.87;;;25.10;34.30;;;;;;5048133;28;20631;-79
2022/03/23 12:06:17;;;;;;;10.87;9.87;;;25.60;32.80;;;;;;5048575;28;20720;-78
2022/03/23 12:08:49;;;;;;;10.70;9.90;;;25.80;31.50;;;;;;5045550;28;20622;-81
2022/03/23 12:11:38;;;;;;;11.03;9.67;;;26.10;29.50;;;;;;5048856;28;20657;-79
2022/03/23 12:14:07;;;;;;;10.60;9.70;;;26.10;28.60;;;;;;5045134;28;20716;-79
2022/03/23 12:17:02;;;;;;;12.00;11.20;;;26.00;28.00;;;;;;5049547;28;20678;-80
2022/03/23 12:19:31;;;;;;;10.73;9.93;;;26.00;28.50;;;;;;5046645;28;20621;-81
2022/03/23 12:22:13;;;;;;;10.77;9.97;;;26.10;28.90;;;;;;5050214;28;20629;-81
2022/03/23 12:24:53;;;;;;;12.23;11.13;;;26.40;28.80;;;;;;5047970;28;20645;-81
2022/03/23 12:27:32;;;;;;;12.20;11.30;;;26.80;28.80;;;;;;5044470;28;20621;-81
2022/03/23 12:30:02;;;;;;;12.20;11.00;;;27.10;29.20;;;;;;5046842;28;20672;-81
2022/03/23 12:32:37;;;;;;;11.53;10.60;;;27.40;28.20;;;;;;5045924;28;20667;-81
2022/03/23 12:35:05;;;;;;;10.80;9.97;;;27.30;27.00;;;;;;5048325;28;20641;-81
2022/03/23 12:37:38;;;;;;;11.93;10.93;;;27.10;26.20;;;;;;5047804;28;20628;-80
2022/03/23 12:40:10;;;;;;;12.73;11.70;;;27.10;27.10;;;;;;5048007;28;21083;-80
2022/03/23 12:42:42;;;;;;;13.00;11.80;;;26.80;27.60;;;;;;5046681;28;20629;-80
2022/03/23 12:45:16;;;;;;;11.73;10.77;;;26.90;27.30;;;;;;5048311;28;20980;-80
2022/03/23 12:47:55;;;;;;;11.73;10.83;;;27.50;28.40;;;;;;5042797;28;20633;-81
2022/03/23 12:59:12;;;;;;;13.10;12.13;;;28.80;27.90;;;;;;5046875;28;21140;-81
2022/03/23 13:01:39;;;;;;;13.23;12.23;;;29.30;27.10;;;;;;5050344;28;20668;-79
2022/03/23 13:04:08;;;;;;;12.83;11.90;;;29.30;27.30;;;;;;5045838;28;20983;-79
2022/03/23 13:06:40;;;;;;;13.80;12.60;;;29.70;26.50;;;;;;5047805;28;20621;-79
2022/03/23 13:09:12;;;;;;;12.47;11.57;;;29.80;26.60;;;;;;5044723;28;21238;-80
2022/03/23 13:11:44;;;;;;;13.33;12.43;;;29.90;26.30;;;;;;5044285;28;21759;-79